Time;durP1;ratioP1;P1;durP2;ratioP2;P2;SDS_P1;SDS_P2;PMS_P1;PMS_P2;Temp;Humidity;BMP_temperature;BMP_pressure;BME280_temperature;BME280_humidity;BME280_pressure;Samples;Min_cycle;Max_cycle;Signal;HPM_P1;HPM_P2
2022/04/15 00:00:36;;;;;;;21.38;14.55;;;;;;;8.87;81.29;102406.94;5012725;28;20030;-54
2022/04/15 00:03:02;;;;;;;20.27;14.43;;;;;;;8.90;81.07;102416.47;5012770;28;20025;-55
2022/04/15 00:05:36;;;;;;;24.77;15.77;;;;;;;8.93;81.46;102412.75;5010829;28;20144;-55
2022/04/15 00:08:10;;;;;;;23.33;16.70;;;;;;;8.86;81.47;102412.34;5012495;28;20026;-55
2022/04/15 00:10:37;;;;;;;26.85;16.65;;;;;;;8.92;81.14;102417.19;5012159;28;20507;-55
2022/04/15 00:13:06;;;;;;;28.13;15.63;;;;;;;8.87;81.06;102409.59;5012746;28;20022;-55
2022/04/15 00:15:31;;;;;;;28.92;14.52;;;;;;;8.81;80.69;102403.88;5011308;28;20034;-55
2022/04/15 00:17:57;;;;;;;29.05;14.82;;;;;;;8.72;81.15;102403.59;5012123;28;20081;-56
2022/04/15 00:20:22;;;;;;;31.50;15.82;;;;;;;8.66;81.06;102401.41;5012006;28;20029;-55
2022/04/15 00:22:47;;;;;;;26.73;15.55;;;;;;;8.62;81.03;102407.84;5011436;28;20044;-55
2022/04/15 00:25:13;;;;;;;34.88;16.60;;;;;;;8.61;81.19;102401.75;5012496;28;20030;-55
2022/04/15 00:27:39;;;;;;;25.50;15.20;;;;;;;8.59;81.84;102405.44;5012373;28;20038;-56
2022/04/15 00:30:06;;;;;;;25.95;15.43;;;;;;;8.48;81.38;102416.72;5011355;28;20036;-54
2022/04/15 00:32:32;;;;;;;24.65;15.30;;;;;;;8.45;81.93;102415.16;5011203;28;20093;-56
2022/04/15 00:34:57;;;;;;;24.50;15.35;;;;;;;8.39;81.87;102420.88;5001467;28;20148;-54
2022/04/15 00:37:23;;;;;;;20.05;13.75;;;;;;;8.35;82.09;102425.53;5012395;28;20037;-55
2022/04/15 00:39:48;;;;;;;19.58;12.98;;;;;;;8.14;83.40;102425.22;5010703;28;20041;-56
2022/04/15 00:42:14;;;;;;;23.67;14.90;;;;;;;8.23;83.81;102425.56;5011370;28;20046;-56
2022/04/15 00:44:39;;;;;;;22.23;13.93;;;;;;;8.19;82.94;102431.03;5011942;28;20038;-55
2022/04/15 00:47:09;;;;;;;21.90;14.13;;;;;;;8.15;82.78;102434.84;5012553;28;20033;-55
2022/04/15 00:49:35;;;;;;;18.95;12.27;;;;;;;8.13;82.62;102434.09;5011620;28;20534;-54
2022/04/15 00:52:02;;;;;;;20.33;13.65;;;;;;;8.09;83.19;102440.56;5009142;28;20030;-54
2022/04/15 00:54:30;;;;;;;24.92;17.38;;;;;;;8.00;82.98;102426.16;5019015;28;20112;-55
2022/04/15 00:56:58;;;;;;;27.35;18.30;;;;;;;8.02;83.26;102432.22;5012221;28;20084;-54
2022/04/15 00:59:24;;;;;;;23.70;15.35;;;;;;;8.03;82.75;102435.69;5011709;28;20026;-55
2022/04/15 01:01:50;;;;;;;26.98;17.98;;;;;;;8.02;83.51;102434.00;5001451;28;20068;-56
2022/04/15 01:04:18;;;;;;;30.33;18.50;;;;;;;8.05;83.54;102433.81;5012334;28;20034;-55
2022/04/15 01:06:46;;;;;;;25.13;17.38;;;;;;;8.16;83.30;102436.56;5011111;28;20453;-57
2022/04/15 01:09:12;;;;;;;22.38;16.55;;;;;;;8.18;83.28;102426.72;5025458;28;20022;-54
2022/04/15 01:11:43;;;;;;;24.13;17.10;;;;;;;8.13;83.12;102436.75;5012083;28;20030;-55
2022/04/15 01:14:11;;;;;;;27.50;17.08;;;;;;;8.05;83.05;102433.81;5020839;28;20041;-54
2022/04/15 01:16:37;;;;;;;25.23;16.88;;;;;;;8.07;83.33;102437.19;5037154;28;20603;-55
2022/04/15 01:19:02;;;;;;;23.15;16.10;;;;;;;7.93;83.52;102441.63;5011356;28;20038;-56
2022/04/15 01:21:31;;;;;;;23.58;16.17;;;;;;;7.97;84.35;102436.97;5010545;28;20469;-54
2022/04/15 01:23:57;;;;;;;22.23;16.02;;;;;;;7.83;84.49;102445.81;5005415;28;20034;-56
2022/04/15 01:26:23;;;;;;;22.85;15.13;;;;;;;7.81;84.22;102448.56;5011911;28;20037;-55
2022/04/15 01:28:48;;;;;;;21.63;13.65;;;;;;;7.83;83.82;102450.28;5011030;28;20065;-55
2022/04/15 01:31:13;;;;;;;19.92;13.15;;;;;;;7.73;83.34;102455.31;5006656;28;20084;-55
2022/04/15 01:33:39;;;;;;;21.88;13.60;;;;;;;7.59;83.11;102453.59;5011892;28;20034;-55
2022/04/15 01:36:04;;;;;;;20.80;11.95;;;;;;;7.48;83.10;102454.28;5011804;28;20052;-55
2022/04/15 01:38:30;;;;;;;20.52;12.38;;;;;;;7.38;83.54;102449.63;5011394;28;20048;-55
2022/04/15 01:40:56;;;;;;;22.10;13.40;;;;;;;7.39;83.59;102453.09;5010941;28;20030;-54
2022/04/15 01:43:21;;;;;;;21.50;14.55;;;;;;;7.42;83.74;102452.06;5011666;28;20032;-55
2022/04/15 01:45:47;;;;;;;22.95;15.00;;;;;;;7.45;83.58;102451.88;5013894;28;20030;-55
2022/04/15 01:48:13;;;;;;;21.02;15.23;;;;;;;7.46;83.54;102448.28;5011317;28;20476;-56
2022/04/15 01:50:38;;;;;;;23.63;15.75;;;;;;;7.55;83.20;102452.94;5014550;28;20026;-51
2022/04/15 01:53:03;;;;;;;21.13;14.20;;;;;;;7.54;82.84;102457.38;5011976;28;20048;-56
2022/04/15 01:55:29;;;;;;;22.27;15.07;;;;;;;7.52;83.23;102458.44;5012961;28;20057;-55
2022/04/15 01:57:55;;;;;;;21.45;14.63;;;;;;;7.53;83.42;102462.75;5014255;28;20026;-55
2022/04/15 02:00:20;;;;;;;22.33;15.32;;;;;;;7.44;83.55;102461.56;5012071;28;20072;-56
2022/04/15 02:02:46;;;;;;;22.63;14.75;;;;;;;7.40;83.86;102455.66;5011262;28;20686;-56
2022/04/15 02:05:11;;;;;;;22.58;14.00;;;;;;;7.34;83.54;102456.06;5014681;28;20030;-56
2022/04/15 02:07:37;;;;;;;21.15;14.00;;;;;;;7.25;84.24;102461.91;5014791;28;20068;-55
2022/04/15 02:10:04;;;;;;;20.55;12.40;;;;;;;7.12;84.07;102468.00;5013935;28;20036;-56
2022/04/15 02:12:29;;;;;;;21.77;14.43;;;;;;;7.13;84.44;102464.44;5014820;28;20037;-55
2022/04/15 02:14:54;;;;;;;23.45;16.75;;;;;;;7.07;84.09;102472.75;5014094;28;20042;-55
2022/04/15 02:17:21;;;;;;;24.08;16.48;;;;;;;7.00;83.86;102469.63;5014816;28;20543;-55
2022/04/15 02:19:47;;;;;;;24.40;16.13;;;;;;;7.11;84.45;102476.03;5013402;28;20036;-56
2022/04/15 02:22:12;;;;;;;27.15;16.15;;;;;;;7.04;84.04;102475.56;5014544;28;20476;-56
2022/04/15 02:24:37;;;;;;;22.88;14.02;;;;;;;6.98;83.75;102483.84;5014738;28;20053;-55
2022/04/15 02:27:03;;;;;;;19.77;12.95;;;;;;;6.95;84.03;102486.66;5022305;28;20034;-57
2022/04/15 02:29:28;;;;;;;19.70;12.55;;;;;;;6.94;83.87;102485.84;5014032;28;20033;-55
2022/04/15 02:31:53;;;;;;;21.05;14.00;;;;;;;6.90;83.90;102483.50;5014447;28;20057;-54
2022/04/15 02:34:18;;;;;;;21.55;12.77;;;;;;;6.89;83.72;102489.69;5014101;28;20026;-55
2022/04/15 02:36:44;;;;;;;19.17;13.27;;;;;;;6.85;84.07;102482.00;5014742;28;20057;-55
2022/04/15 02:39:10;;;;;;;24.42;13.50;;;;;;;6.75;83.81;102486.13;5015142;28;20045;-55
2022/04/15 02:41:38;;;;;;;22.83;12.48;;;;;;;6.69;83.57;102491.78;5014523;28;20120;-54
2022/04/15 02:44:06;;;;;;;20.52;13.20;;;;;;;6.59;84.10;102487.09;5014650;28;20034;-54
2022/04/15 02:46:31;;;;;;;20.67;12.95;;;;;;;6.59;85.12;102486.25;5013982;28;20030;-55
2022/04/15 02:48:57;;;;;;;23.75;15.70;;;;;;;6.52;85.74;102484.94;5012531;28;20495;-55
2022/04/15 02:51:22;;;;;;;23.30;15.18;;;;;;;6.40;84.95;102491.78;5014123;28;20042;-56
2022/04/15 02:53:47;;;;;;;29.38;16.65;;;;;;;6.55;85.61;102488.22;5019109;28;20048;-54
2022/04/15 02:56:12;;;;;;;25.70;17.10;;;;;;;6.55;85.04;102484.72;5016940;28;20058;-55
2022/04/15 02:58:38;;;;;;;29.80;18.75;;;;;;;6.50;84.78;102492.94;5012850;28;20042;-54
2022/04/15 03:01:03;;;;;;;28.30;18.63;;;;;;;6.46;85.97;102491.41;5014140;28;20037;-55
2022/04/15 03:03:28;;;;;;;30.02;19.05;;;;;;;6.44;85.79;102488.03;5014165;28;20385;-55
2022/04/15 03:05:56;;;;;;;21.75;14.52;;;;;;;6.38;85.34;102483.13;5005055;28;20030;-55
2022/04/15 03:08:21;;;;;;;27.25;15.90;;;;;;;6.25;85.31;102483.03;5010786;28;20037;-55
2022/04/15 03:10:46;;;;;;;31.35;18.25;;;;;;;6.25;85.86;102490.94;5013640;28;20037;-54
2022/04/15 03:13:12;;;;;;;28.05;18.58;;;;;;;6.36;86.51;102485.03;5013939;28;20159;-55
2022/04/15 03:15:37;;;;;;;28.42;18.55;;;;;;;6.46;85.64;102496.69;5009897;28;20030;-53
2022/04/15 03:18:03;;;;;;;28.25;17.15;;;;;;;6.44;84.97;102488.03;5008763;28;20053;-57
2022/04/15 03:20:28;;;;;;;27.63;16.17;;;;;;;6.49;85.04;102485.97;5013156;28;20594;-55
2022/04/15 03:22:54;;;;;;;22.00;13.90;;;;;;;6.45;84.58;102489.72;5013567;28;20437;-55
2022/04/15 03:25:19;;;;;;;23.67;16.05;;;;;;;6.25;85.14;102493.56;5013020;28;20461;-55
2022/04/15 03:27:45;;;;;;;21.35;13.70;;;;;;;6.27;85.56;102497.81;5013131;28;20101;-55
2022/04/15 03:30:11;;;;;;;21.50;13.38;;;;;;;6.38;85.72;102493.69;5012401;28;20057;-53
2022/04/15 03:32:50;;;;;;;23.92;14.63;;;;;;;6.40;85.44;102487.38;5015842;28;20029;-54
2022/04/15 03:35:20;;;;;;;21.95;14.25;;;;;;;6.32;84.47;102490.47;5014877;28;20381;-55
2022/04/15 03:37:45;;;;;;;24.73;14.82;;;;;;;6.23;84.74;102496.31;5013522;28;20473;-55
2022/04/15 03:40:10;;;;;;;22.95;13.75;;;;;;;6.13;84.02;102497.78;5012434;28;20032;-53
2022/04/15 03:42:54;;;;;;;25.00;15.38;;;;;;;6.13;84.96;102505.69;5013295;28;20493;-55
2022/04/15 03:45:22;;;;;;;25.05;17.15;;;;;;;6.07;84.90;102498.16;5013302;28;20091;-55
2022/04/15 03:47:51;;;;;;;27.27;16.90;;;;;;;6.04;85.77;102507.94;5002881;28;20028;-54
2022/04/15 03:50:17;;;;;;;27.95;17.42;;;;;;;6.05;85.86;102508.78;5012116;28;20038;-55
2022/04/15 03:52:46;;;;;;;24.77;16.23;;;;;;;6.03;85.47;102506.22;5013138;28;20068;-55
2022/04/15 03:55:13;;;;;;;25.27;16.88;;;;;;;6.08;85.01;102505.09;5012361;28;20029;-55
2022/04/15 03:57:38;;;;;;;29.63;16.60;;;;;;;6.12;85.08;102504.00;5012561;28;20033;-55
2022/04/15 04:00:09;;;;;;;25.00;17.27;;;;;;;6.04;85.73;102517.63;5011768;28;20495;-55
2022/04/15 04:02:34;;;;;;;29.77;18.33;;;;;;;6.12;87.00;102514.53;5008397;28;20041;-55
2022/04/15 04:04:59;;;;;;;33.08;18.98;;;;;;;6.24;86.47;102519.06;5012561;28;20511;-55
2022/04/15 04:07:25;;;;;;;28.50;18.00;;;;;;;6.14;87.32;102516.16;5010729;28;20030;-54
2022/04/15 04:09:50;;;;;;;31.35;18.98;;;;;;;6.21;87.34;102523.69;5011385;28;20037;-55
2022/04/15 04:12:15;;;;;;;38.08;22.00;;;;;;;6.22;89.32;102515.66;5011392;28;20508;-55
2022/04/15 04:14:41;;;;;;;39.88;23.45;;;;;;;6.30;89.58;102526.63;5012736;28;20026;-55
2022/04/15 04:17:06;;;;;;;40.83;24.70;;;;;;;6.29;90.95;102519.66;5010670;28;20049;-53
2022/04/15 04:19:31;;;;;;;53.75;27.50;;;;;;;6.31;91.83;102525.66;5010626;28;20048;-55
2022/04/15 04:21:56;;;;;;;200.88;30.02;;;;;;;6.31;94.73;102520.41;5011198;28;20432;-55
2022/04/15 04:24:22;;;;;;;129.85;26.25;;;;;;;6.29;96.33;102538.09;5011419;28;20038;-57
2022/04/15 04:26:47;;;;;;;109.88;26.48;;;;;;;6.29;96.91;102532.81;5008357;28;20056;-57
2022/04/15 04:29:13;;;;;;;121.10;27.15;;;;;;;6.32;97.10;102542.34;5009425;28;20038;-57
2022/04/15 04:31:38;;;;;;;111.38;25.52;;;;;;;6.18;97.94;102535.25;5004584;28;20065;-57
2022/04/15 04:34:03;;;;;;;103.03;24.73;;;;;;;6.21;97.88;102535.03;5007573;28;20695;-56
2022/04/15 04:36:29;;;;;;;143.55;25.90;;;;;;;6.17;97.81;102538.81;5011884;28;20083;-58
2022/04/15 04:38:54;;;;;;;146.85;25.08;;;;;;;6.14;98.95;102539.00;5007626;28;20042;-57
2022/04/15 04:41:20;;;;;;;180.40;27.88;;;;;;;6.14;98.63;102544.25;4998500;28;20132;-57
2022/04/15 04:43:45;;;;;;;180.20;25.63;;;;;;;6.13;98.36;102542.56;4999810;28;20045;-56
2022/04/15 04:46:10;;;;;;;121.93;25.73;;;;;;;6.14;100.00;102554.78;5000806;28;20034;-56
2022/04/15 04:48:36;;;;;;;89.05;25.83;;;;;;;6.15;99.92;102567.88;4997305;28;20433;-56
2022/04/15 04:51:01;;;;;;;174.18;27.13;;;;;;;6.07;100.00;102564.81;4998725;28;20038;-56
2022/04/15 04:53:27;;;;;;;57.83;27.02;;;;;;;6.14;100.00;102565.34;4998167;28;20030;-55
2022/04/15 04:55:52;;;;;;;56.08;24.25;;;;;;;6.21;99.98;102556.13;4998881;28;20066;-56
2022/04/15 04:58:17;;;;;;;54.83;21.92;;;;;;;6.22;99.01;102565.72;5009950;28;20065;-55
2022/04/15 05:00:42;;;;;;;131.02;20.90;;;;;;;6.17;99.34;102568.63;4999759;28;20776;-56
2022/04/15 05:03:08;;;;;;;75.38;21.00;;;;;;;6.05;99.60;102566.72;5002673;28;20045;-54
2022/04/15 05:05:33;;;;;;;43.40;20.52;;;;;;;6.10;99.70;102576.97;5004441;28;20039;-54
2022/04/15 05:07:58;;;;;;;61.63;21.42;;;;;;;6.11;100.00;102583.97;5006461;28;20037;-56
2022/04/15 05:10:24;;;;;;;87.57;21.60;;;;;;;6.01;100.00;102584.44;5002933;28;20481;-56
2022/04/15 05:12:49;;;;;;;60.97;20.50;;;;;;;6.08;100.00;102582.34;4999361;28;20108;-57
2022/04/15 05:15:14;;;;;;;74.28;21.38;;;;;;;6.13;100.00;102590.81;4997413;28;20142;-58
2022/04/15 05:17:40;;;;;;;68.40;21.20;;;;;;;6.10;100.00;102590.13;5000620;28;20504;-57
2022/04/15 05:20:06;;;;;;;48.72;21.45;;;;;;;6.13;100.00;102592.63;5007663;28;20346;-57
2022/04/15 05:22:33;;;;;;;42.00;21.25;;;;;;;6.23;100.00;102600.81;5005089;28;20030;-57
2022/04/15 05:24:58;;;;;;;51.38;22.00;;;;;;;6.25;100.00;102605.06;5003016;28;20084;-56
2022/04/15 05:27:25;;;;;;;37.78;21.25;;;;;;;6.35;100.00;102605.38;5006938;28;20486;-57
2022/04/15 05:29:50;;;;;;;64.55;21.48;;;;;;;6.37;100.00;102613.19;5007913;28;20087;-57
2022/04/15 05:32:18;;;;;;;106.20;24.02;;;;;;;6.30;100.00;102613.56;5009638;28;20026;-57
2022/04/15 05:34:44;;;;;;;50.70;22.50;;;;;;;6.35;100.00;102609.81;5013399;28;20034;-57
2022/04/15 05:37:10;;;;;;;33.53;20.83;;;;;;;6.44;100.00;102620.66;5009147;28;20022;-57
2022/04/15 05:39:35;;;;;;;76.40;21.40;;;;;;;6.48;100.00;102616.06;5008575;28;20024;-57
2022/04/15 05:42:01;;;;;;;37.90;21.63;;;;;;;6.48;100.00;102634.50;5012042;28;20026;-57
2022/04/15 05:44:26;;;;;;;38.20;22.80;;;;;;;6.54;100.00;102626.25;5026693;28;20044;-58
2022/04/15 05:46:52;;;;;;;36.95;22.50;;;;;;;6.57;100.00;102633.94;5008798;28;20030;-57
2022/04/15 05:49:18;;;;;;;38.53;21.85;;;;;;;6.63;100.00;102639.81;5026037;28;20076;-57
2022/04/15 05:51:48;;;;;;;40.10;21.95;;;;;;;6.64;100.00;102641.50;5009403;28;20460;-57
2022/04/15 05:54:13;;;;;;;37.30;21.80;;;;;;;6.66;100.00;102647.53;5013406;28;20194;-57
2022/04/15 05:56:38;;;;;;;39.03;22.00;;;;;;;6.68;100.00;102654.44;5009303;28;20113;-57
2022/04/15 05:59:05;;;;;;;42.83;22.77;;;;;;;6.72;100.00;102647.19;5004720;28;20038;-57
2022/04/15 06:01:30;;;;;;;37.78;23.10;;;;;;;6.77;100.00;102658.31;5018699;28;20101;-57
2022/04/15 06:03:55;;;;;;;44.15;22.75;;;;;;;6.80;100.00;102652.84;5021147;28;20456;-57
2022/04/15 06:06:20;;;;;;;38.35;23.67;;;;;;;6.86;100.00;102657.75;5006354;28;20034;-57
2022/04/15 06:08:46;;;;;;;42.78;22.42;;;;;;;6.89;100.00;102661.13;5038420;28;20537;-57
2022/04/15 06:11:11;;;;;;;42.08;24.30;;;;;;;6.89;100.00;102669.91;5016768;28;20026;-57
2022/04/15 06:13:41;;;;;;;36.20;23.08;;;;;;;6.94;100.00;102669.59;5026284;28;20491;-56
2022/04/15 06:16:09;;;;;;;35.97;22.67;;;;;;;6.94;100.00;102669.59;5019221;28;20029;-57
2022/04/15 06:18:36;;;;;;;35.97;23.50;;;;;;;6.93;100.00;102673.19;5014445;28;20049;-57
2022/04/15 06:21:02;;;;;;;38.53;24.45;;;;;;;6.98;100.00;102676.41;5027767;28;20037;-58
2022/04/15 06:23:27;;;;;;;37.22;22.67;;;;;;;6.99;100.00;102672.81;5024317;28;20181;-57
2022/04/15 06:25:53;;;;;;;33.67;23.30;;;;;;;6.96;100.00;102673.84;5021225;28;20536;-57
2022/04/15 06:28:21;;;;;;;33.53;22.25;;;;;;;7.01;100.00;102673.59;5028676;28;20045;-57
2022/04/15 06:30:46;;;;;;;36.72;23.23;;;;;;;6.96;100.00;102676.50;5015322;28;20484;-56
2022/04/15 06:33:15;;;;;;;34.13;22.73;;;;;;;6.92;100.00;102676.78;5014679;28;20037;-56
2022/04/15 06:35:40;;;;;;;34.90;23.00;;;;;;;6.99;100.00;102683.38;5016300;28;20030;-56
2022/04/15 06:38:05;;;;;;;34.72;23.33;;;;;;;7.05;100.00;102687.44;5014516;28;20045;-56
2022/04/15 06:40:31;;;;;;;33.85;22.67;;;;;;;7.11;100.00;102687.91;5021925;28;20034;-56
2022/04/15 06:42:56;;;;;;;33.55;22.08;;;;;;;7.15;100.00;102690.38;5015080;28;20056;-57
2022/04/15 06:45:21;;;;;;;33.25;21.83;;;;;;;7.18;100.00;102693.69;5014470;28;20064;-56
2022/04/15 06:47:46;;;;;;;31.65;20.98;;;;;;;7.21;99.84;102701.38;5010525;28;20042;-56
2022/04/15 06:50:12;;;;;;;33.47;21.20;;;;;;;7.21;99.43;102697.91;5007391;28;20053;-56
2022/04/15 06:52:37;;;;;;;29.45;19.75;;;;;;;7.23;99.11;102701.31;5010309;28;20026;-56
2022/04/15 06:55:04;;;;;;;32.28;20.67;;;;;;;7.12;99.12;102691.41;5021739;28;20041;-56
2022/04/15 06:57:31;;;;;;;33.78;21.35;;;;;;;7.25;99.09;102704.69;5012171;28;20465;-55
2022/04/15 06:59:57;;;;;;;35.58;22.52;;;;;;;7.26;99.44;102701.13;5009228;28;20081;-56
2022/04/15 07:02:22;;;;;;;32.25;21.45;;;;;;;7.34;99.34;102711.19;5010495;28;20053;-56
2022/04/15 07:04:48;;;;;;;33.28;22.50;;;;;;;7.34;99.47;102706.78;5008047;28;20101;-56
2022/04/15 07:07:13;;;;;;;33.25;22.20;;;;;;;7.36;99.04;102712.81;5005682;28;20121;-54
2022/04/15 07:09:39;;;;;;;35.92;22.17;;;;;;;7.38;99.41;102704.78;5006767;28;20040;-56
2022/04/15 07:12:06;;;;;;;35.25;21.80;;;;;;;7.45;99.09;102710.56;5004459;28;20034;-55
2022/04/15 07:14:33;;;;;;;35.35;22.80;;;;;;;7.43;98.98;102712.41;5002641;28;20038;-57
2022/04/15 07:16:58;;;;;;;34.50;21.90;;;;;;;7.40;98.57;102714.31;5015051;28;20041;-58
2022/04/15 07:19:23;;;;;;;33.33;21.55;;;;;;;7.43;99.07;102715.06;5012130;28;20117;-57
2022/04/15 07:21:49;;;;;;;32.17;21.25;;;;;;;7.46;99.07;102720.16;5015542;28;20042;-57
2022/04/15 07:24:14;;;;;;;30.55;21.05;;;;;;;7.47;99.62;102720.09;5006063;28;20034;-57
2022/04/15 07:26:39;;;;;;;30.15;19.60;;;;;;;7.53;99.03;102718.84;5016913;28;20037;-57
2022/04/15 07:29:05;;;;;;;30.83;20.08;;;;;;;7.53;98.64;102718.84;5003787;28;20038;-57
2022/04/15 07:31:30;;;;;;;30.33;18.58;;;;;;;7.59;98.02;102723.75;5011373;28;20087;-58
2022/04/15 07:33:56;;;;;;;25.02;17.70;;;;;;;7.60;97.59;102730.72;5005225;28;20080;-58
2022/04/15 07:38:59;;;;;;;30.25;19.10;;;;;;;7.62;98.12;102730.63;5019381;28;20427;-58
2022/04/15 07:41:25;;;;;;;28.52;19.17;;;;;;;7.61;97.98;102734.22;5005015;28;20033;-57
2022/04/15 07:43:50;;;;;;;30.13;19.90;;;;;;;7.65;97.84;102731.28;5006126;28;20457;-58
2022/04/15 07:46:16;;;;;;;30.58;19.27;;;;;;;7.67;97.93;102732.06;5012665;28;20037;-58
2022/04/15 07:48:42;;;;;;;30.80;19.75;;;;;;;7.74;97.89;102731.66;5008841;28;20030;-58
2022/04/15 07:51:08;;;;;;;31.42;20.52;;;;;;;7.82;97.94;102732.03;5009667;28;20514;-57
2022/04/15 07:53:33;;;;;;;31.63;20.27;;;;;;;7.86;97.40;102738.81;5005466;28;20033;-57
2022/04/15 07:55:58;;;;;;;33.05;19.70;;;;;;;7.91;97.45;102744.63;5003823;28;20117;-57
2022/04/15 07:58:23;;;;;;;28.00;19.30;;;;;;;7.96;97.49;102733.81;5023144;28;20477;-58
2022/04/15 08:00:49;;;;;;;26.42;18.20;;;;;;;7.95;96.58;102740.03;5006432;28;20089;-57
2022/04/15 08:03:15;;;;;;;25.58;16.42;;;;;;;8.04;96.38;102739.44;5005587;28;20487;-57
2022/04/15 08:05:40;;;;;;;24.75;15.50;;;;;;;8.08;95.29;102743.59;5009258;28;20108;-57
2022/04/15 08:08:06;;;;;;;26.40;17.60;;;;;;;8.13;95.28;102743.28;5001429;28;20038;-57
2022/04/15 08:10:31;;;;;;;29.52;19.10;;;;;;;8.15;95.95;102740.56;5000561;28;20072;-58
2022/04/15 08:12:56;;;;;;;31.83;19.52;;;;;;;8.20;95.69;102734.00;4994469;28;20049;-57
2022/04/15 08:15:22;;;;;;;31.13;19.73;;;;;;;8.20;95.05;102739.28;5009560;28;20680;-58
2022/04/15 08:17:47;;;;;;;28.85;18.20;;;;;;;8.24;95.36;102739.13;5009831;28;20050;-57
2022/04/15 08:20:14;;;;;;;28.25;18.33;;;;;;;8.28;95.11;102745.88;5015820;28;20053;-58
2022/04/15 08:22:39;;;;;;;28.23;17.40;;;;;;;8.29;94.34;102747.59;5012483;28;20056;-57
2022/04/15 08:25:07;;;;;;;23.45;16.00;;;;;;;8.30;93.09;102744.00;5016325;28;20065;-57
2022/04/15 08:27:33;;;;;;;26.25;16.85;;;;;;;8.33;93.91;102743.78;5011753;28;20456;-58
2022/04/15 08:29:58;;;;;;;27.55;16.10;;;;;;;8.32;93.05;102742.97;5005579;28;20071;-58
2022/04/15 08:32:23;;;;;;;23.10;15.27;;;;;;;8.40;93.23;102750.41;5004706;28;20148;-58
2022/04/15 08:34:49;;;;;;;22.95;14.35;;;;;;;8.46;92.70;102747.34;5005707;28;20726;-58
2022/04/15 08:37:14;;;;;;;18.45;11.88;;;;;;;8.56;90.55;102755.56;5014596;28;20025;-58
2022/04/15 08:39:40;;;;;;;21.05;11.85;;;;;;;8.70;89.19;102757.28;5009743;28;20636;-57
2022/04/15 08:42:09;;;;;;;18.58;11.77;;;;;;;8.78;88.80;102753.28;5016636;28;20531;-58
2022/04/15 08:44:34;;;;;;;17.88;11.98;;;;;;;8.84;88.57;102758.16;5016573;28;20030;-58
2022/04/15 08:47:01;;;;;;;20.40;12.10;;;;;;;8.86;86.58;102764.19;5019541;28;20087;-56
2022/04/15 08:49:29;;;;;;;17.70;11.70;;;;;;;8.89;86.03;102764.00;5011138;28;20034;-58
2022/04/15 08:51:55;;;;;;;19.20;11.82;;;;;;;9.02;86.51;102762.22;5004972;28;20384;-57
2022/04/15 08:54:21;;;;;;;17.80;11.85;;;;;;;9.00;85.66;102769.44;5004158;28;20069;-57
2022/04/15 08:56:47;;;;;;;18.63;11.55;;;;;;;9.09;85.24;102767.94;5007380;28;20400;-58
2022/04/15 08:59:13;;;;;;;16.63;11.48;;;;;;;9.05;84.32;102776.19;5005948;28;20038;-55
2022/04/15 09:01:39;;;;;;;17.92;11.25;;;;;;;9.05;83.67;102770.88;5003901;28;20029;-55
2022/04/15 09:04:04;;;;;;;16.55;11.52;;;;;;;9.09;83.27;102777.69;5001369;28;20164;-54
2022/04/15 09:06:31;;;;;;;16.17;10.88;;;;;;;9.19;83.07;102781.41;5002049;28;20030;-55
2022/04/15 09:09:06;;;;;;;19.73;11.95;;;;;;;9.31;84.28;102777.06;5006717;28;20040;-55
2022/04/15 09:11:36;;;;;;;16.48;10.77;;;;;;;9.31;81.75;102770.94;5027657;28;20022;-56
2022/04/15 09:14:07;;;;;;;16.33;10.90;;;;;;;9.50;81.96;102775.78;5005909;28;20108;-55
2022/04/15 09:16:37;;;;;;;17.10;10.63;;;;;;;9.51;82.06;102778.34;5004207;28;20064;-56
2022/04/15 09:19:05;;;;;;;17.00;10.82;;;;;;;9.71;82.50;102778.75;5006087;28;20241;-56
2022/04/15 09:21:31;;;;;;;14.82;10.77;;;;;;;9.73;79.58;102781.28;5011945;28;20018;-56
2022/04/15 09:23:56;;;;;;;14.60;10.50;;;;;;;9.85;80.26;102785.72;5009565;28;20550;-56
2022/04/15 09:26:23;;;;;;;14.43;10.40;;;;;;;9.83;78.95;102777.88;5003495;28;20028;-55
2022/04/15 09:28:49;;;;;;;17.40;10.60;;;;;;;9.91;79.19;102779.97;5006458;28;20048;-56
2022/04/15 09:31:17;;;;;;;14.55;10.32;;;;;;;9.93;77.96;102777.22;5002795;28;20049;-56
2022/04/15 09:33:55;;;;;;;15.55;10.68;;;;;;;9.99;79.36;102778.59;5014758;28;20109;-55
2022/04/15 09:36:25;;;;;;;15.73;10.77;;;;;;;10.21;79.63;102786.69;5002017;28;20161;-57
2022/04/15 09:38:55;;;;;;;17.92;10.57;;;;;;;10.34;78.64;102786.66;5005525;28;21368;-59
2022/04/15 09:41:23;;;;;;;17.20;10.55;;;;;;;10.42;77.24;102790.56;4995959;28;20461;-59
2022/04/15 09:43:52;;;;;;;16.35;10.25;;;;;;;10.29;76.20;102788.78;5006620;28;20034;-56
2022/04/15 09:46:18;;;;;;;16.20;10.68;;;;;;;10.35;76.49;102783.03;5003075;28;20042;-56
2022/04/15 09:49:02;;;;;;;15.52;10.10;;;;;;;10.44;77.42;102793.97;4997467;28;20045;-55
2022/04/15 09:51:29;;;;;;;14.55;10.05;;;;;;;10.55;75.80;102794.03;5005238;28;20069;-55
2022/04/15 09:53:59;;;;;;;13.38;9.43;;;;;;;10.62;74.29;102789.13;4998551;28;20050;-57
2022/04/15 09:56:25;;;;;;;12.55;8.88;;;;;;;10.84;73.69;102788.34;5000486;28;20029;-58
2022/04/15 09:58:54;;;;;;;12.43;9.02;;;;;;;11.06;73.42;102784.09;5004601;28;20507;-58
2022/04/15 10:01:22;;;;;;;12.88;8.77;;;;;;;11.14;72.39;102781.69;5021056;28;20060;-58
2022/04/15 10:03:49;;;;;;;11.82;8.50;;;;;;;11.25;72.96;102775.53;5019074;28;20033;-58
2022/04/15 10:06:15;;;;;;;11.45;8.95;;;;;;;11.40;71.98;102784.13;5018473;28;20068;-58
2022/04/15 10:08:42;;;;;;;13.15;8.25;;;;;;;11.33;70.98;102782.94;5008624;28;20037;-58
2022/04/15 10:11:09;;;;;;;11.82;8.30;;;;;;;11.33;70.51;102785.59;5008444;28;20030;-57
2022/04/15 10:13:35;;;;;;;12.55;9.18;;;;;;;11.33;72.04;102780.28;5005174;28;20026;-58
2022/04/15 10:16:01;;;;;;;12.02;7.78;;;;;;;11.29;70.08;102789.44;5005475;28;20042;-58
2022/04/15 10:18:28;;;;;;;10.10;7.70;;;;;;;11.19;69.91;102780.50;5003414;28;20113;-57
2022/04/15 10:20:53;;;;;;;10.27;7.72;;;;;;;11.30;70.28;102780.53;5002461;28;20069;-56
2022/04/15 10:23:21;;;;;;;12.43;8.20;;;;;;;11.43;69.52;102777.75;5007514;28;20058;-56
2022/04/15 10:25:49;;;;;;;11.13;8.35;;;;;;;11.43;69.83;102772.44;5008406;28;20057;-56
2022/04/15 10:28:19;;;;;;;12.98;8.95;;;;;;;11.61;70.08;102780.78;5010486;28;20026;-56
2022/04/15 10:30:51;;;;;;;10.85;8.50;;;;;;;11.74;70.18;102774.50;5014221;28;20037;-56
2022/04/15 10:33:30;;;;;;;12.38;8.40;;;;;;;11.71;68.50;102776.41;5004595;28;20025;-56
2022/04/15 10:36:17;;;;;;;11.10;8.10;;;;;;;11.64;69.11;102780.53;5012894;28;20026;-56
2022/04/15 10:39:06;;;;;;;12.15;8.10;;;;;;;11.60;70.32;102773.75;5010106;28;20053;-57
2022/04/15 10:41:40;;;;;;;11.45;7.80;;;;;;;11.68;68.68;102771.34;4997806;28;20069;-56
2022/04/15 10:44:05;;;;;;;10.80;8.30;;;;;;;11.65;68.22;102768.09;5014215;28;20029;-56
2022/04/15 10:46:35;;;;;;;12.85;7.80;;;;;;;11.69;68.42;102766.88;5013832;28;20033;-56
2022/04/15 10:49:01;;;;;;;11.13;8.43;;;;;;;11.75;67.95;102776.19;5011632;28;20034;-55
2022/04/15 10:51:33;;;;;;;11.30;8.10;;;;;;;11.84;69.61;102765.66;5013063;28;20072;-56
2022/04/15 10:54:29;;;;;;;10.70;8.07;;;;;;;11.85;69.98;102766.53;5014655;28;20041;-56
2022/04/15 10:57:21;;;;;;;10.00;8.00;;;;;;;11.84;69.06;102760.34;5014446;28;20037;-57
2022/04/15 11:02:49;;;;;;;10.48;7.63;;;;;;;12.32;67.81;102757.50;5005673;28;20044;-56
2022/04/15 11:05:35;;;;;;;10.43;7.25;;;;;;;12.63;67.94;102755.81;5013133;28;20037;-57
2022/04/15 11:08:05;;;;;;;11.95;7.70;;;;;;;12.94;64.58;102762.19;5009112;28;20030;-56
2022/04/15 11:10:42;;;;;;;9.05;7.30;;;;;;;13.09;66.20;102760.03;5013636;28;20056;-56
2022/04/15 11:13:22;;;;;;;7.93;6.70;;;;;;;12.89;64.84;102765.25;5012322;28;20153;-55
2022/04/15 11:16:13;;;;;;;10.60;7.28;;;;;;;12.64;66.63;102767.31;5006139;28;20095;-57
2022/04/15 11:18:50;;;;;;;11.80;7.53;;;;;;;12.56;65.39;102765.28;5002187;28;20050;-57